Time;durP1;ratioP1;P1;durP2;ratioP2;P2;SDS_P1;SDS_P2;PMS_P1;PMS_P2;Temp;Humidity;BMP_temperature;BMP_pressure;BME280_temperature;BME280_humidity;BME280_pressure;Samples;Min_cycle;Max_cycle;Signal;HPM_P1;HPM_P2
2024/01/11 00:01:47;;;;;;;39.78;17.08;;;-4.10;99.90;;;;;;5093933;28;20447;-55
2024/01/11 00:04:13;;;;;;;37.60;16.48;;;-4.10;99.90;;;;;;5110957;28;20036;-56
2024/01/11 00:06:43;;;;;;;38.70;16.17;;;-4.20;99.90;;;;;;5103556;28;20204;-51
2024/01/11 00:09:09;;;;;;;38.38;17.65;;;-4.20;99.90;;;;;;5111297;28;20079;-53
2024/01/11 00:11:35;;;;;;;36.78;16.38;;;-4.20;99.90;;;;;;5111094;28;20067;-53
2024/01/11 00:14:00;;;;;;;38.25;16.23;;;-4.20;99.90;;;;;;5038415;28;20063;-53
2024/01/11 00:16:26;;;;;;;40.72;17.63;;;-4.20;99.90;;;;;;5100868;28;20037;-52
2024/01/11 00:18:52;;;;;;;41.10;17.02;;;-4.20;99.90;;;;;;5110888;28;20047;-54
2024/01/11 00:21:17;;;;;;;37.63;17.13;;;-4.30;99.90;;;;;;5110964;28;20089;-55
2024/01/11 00:23:43;;;;;;;38.55;16.73;;;-4.30;99.90;;;;;;5111042;28;20499;-55
2024/01/11 00:26:11;;;;;;;38.78;16.45;;;-4.30;99.90;;;;;;5110987;28;20494;-53
2024/01/11 00:28:37;;;;;;;39.42;16.67;;;-4.30;99.90;;;;;;5034575;28;20101;-54
2024/01/11 00:31:03;;;;;;;44.13;17.52;;;-4.20;99.90;;;;;;5016960;28;20030;-56
2024/01/11 00:33:29;;;;;;;38.45;16.20;;;-4.30;99.90;;;;;;5031388;28;20037;-55
2024/01/11 00:35:54;;;;;;;36.60;16.52;;;-4.30;99.90;;;;;;5033948;28;20494;-55
2024/01/11 00:38:20;;;;;;;39.60;16.70;;;-4.30;99.90;;;;;;5114746;28;20537;-56
2024/01/11 00:40:45;;;;;;;41.20;18.00;;;-4.30;99.90;;;;;;5114600;28;20406;-54
2024/01/11 00:43:11;;;;;;;39.78;16.15;;;-4.40;99.90;;;;;;5080985;28;20428;-54
2024/01/11 00:45:38;;;;;;;41.40;16.67;;;-4.40;99.90;;;;;;5105659;28;20043;-56
2024/01/11 00:48:04;;;;;;;40.63;18.13;;;-4.40;99.90;;;;;;5114668;28;20503;-55
2024/01/11 00:50:29;;;;;;;40.75;16.65;;;-4.50;99.90;;;;;;5097409;28;20492;-56
2024/01/11 00:52:55;;;;;;;43.22;16.73;;;-4.50;99.90;;;;;;5080295;28;20048;-55
2024/01/11 00:55:21;;;;;;;38.22;15.85;;;-4.50;99.90;;;;;;5098147;28;20539;-53
2024/01/11 00:57:46;;;;;;;39.35;16.27;;;-4.50;99.90;;;;;;5098648;28;20123;-53
2024/01/11 01:00:16;;;;;;;38.92;17.67;;;-4.50;99.90;;;;;;5113872;28;20039;-54
2024/01/11 01:02:42;;;;;;;39.50;17.10;;;-4.50;99.90;;;;;;5099099;28;20505;-55
2024/01/11 01:05:08;;;;;;;42.25;16.65;;;-4.60;99.90;;;;;;5112293;28;20040;-55
2024/01/11 01:07:33;;;;;;;44.92;18.23;;;-4.60;99.90;;;;;;5094002;28;20059;-54
2024/01/11 01:09:59;;;;;;;44.28;17.30;;;-4.60;99.90;;;;;;5085560;28;20165;-55
2024/01/11 01:12:25;;;;;;;36.42;16.27;;;-4.60;99.90;;;;;;5095778;28;20039;-57
2024/01/11 01:14:51;;;;;;;42.75;17.52;;;-4.60;99.90;;;;;;5031398;28;20041;-55
2024/01/11 01:17:17;;;;;;;41.72;17.73;;;-4.60;99.90;;;;;;5071130;28;20034;-54
2024/01/11 01:19:44;;;;;;;40.55;16.83;;;-4.60;99.90;;;;;;5114188;28;20027;-54
2024/01/11 01:22:09;;;;;;;41.88;17.67;;;-4.70;99.90;;;;;;5113408;28;20161;-56
2024/01/11 01:24:35;;;;;;;43.20;17.35;;;-4.70;99.90;;;;;;5113777;28;20138;-54
2024/01/11 01:27:01;;;;;;;42.70;16.73;;;-4.70;99.90;;;;;;5105890;28;20028;-54
2024/01/11 01:29:27;;;;;;;35.90;17.13;;;-4.60;99.90;;;;;;5083510;28;20038;-53
2024/01/11 01:31:52;;;;;;;38.78;16.55;;;-4.60;99.90;;;;;;5106764;28;20048;-55
2024/01/11 01:34:19;;;;;;;37.63;17.25;;;-4.70;99.90;;;;;;5113961;28;20040;-53
2024/01/11 01:36:44;;;;;;;42.33;17.88;;;-4.70;99.90;;;;;;5077566;28;20035;-54
2024/01/11 01:39:10;;;;;;;39.97;17.80;;;-4.70;99.90;;;;;;5112529;28;20032;-54
2024/01/11 01:41:36;;;;;;;47.53;18.33;;;-4.70;99.90;;;;;;5113123;28;20028;-54
2024/01/11 01:44:02;;;;;;;42.40;17.50;;;-4.70;99.90;;;;;;5103305;28;20032;-54
2024/01/11 01:46:28;;;;;;;39.10;16.88;;;-4.70;99.90;;;;;;5047096;28;20035;-55
2024/01/11 01:48:56;;;;;;;44.75;18.50;;;-4.80;99.90;;;;;;5113221;28;20023;-54
2024/01/11 01:51:23;;;;;;;43.83;17.45;;;-4.80;99.90;;;;;;5112839;28;20075;-56
2024/01/11 01:53:51;;;;;;;38.78;18.20;;;-3.30;99.90;;;;;;5029573;28;20093;-56
2024/01/11 01:56:19;;;;;;;41.22;16.35;;;-4.80;99.90;;;;;;5029512;28;20071;-56
2024/01/11 01:58:44;;;;;;;45.03;17.08;;;-4.80;99.90;;;;;;5029420;28;20036;-56
2024/01/11 02:01:11;;;;;;;38.88;17.73;;;-4.90;99.90;;;;;;5101865;28;20031;-52
2024/01/11 02:03:37;;;;;;;41.90;16.40;;;-4.90;99.90;;;;;;5112958;28;20035;-52
2024/01/11 02:06:06;;;;;;;46.47;17.95;;;-4.80;99.90;;;;;;5113072;28;20043;-52
2024/01/11 02:08:32;;;;;;;42.47;18.50;;;-4.70;99.90;;;;;;5113229;28;20371;-53
2024/01/11 02:11:00;;;;;;;43.47;18.42;;;-4.80;99.90;;;;;;5112697;27;20097;-54
2024/01/11 02:13:25;;;;;;;43.58;17.90;;;-4.90;99.90;;;;;;5084730;28;20046;-52
2024/01/11 02:15:51;;;;;;;40.40;17.00;;;-4.80;99.90;;;;;;5101311;28;20563;-54
2024/01/11 02:18:17;;;;;;;46.55;18.42;;;-4.80;99.90;;;;;;5101496;28;20100;-54
2024/01/11 02:20:43;;;;;;;45.25;17.90;;;-4.90;99.90;;;;;;5110392;28;20039;-56
2024/01/11 02:23:16;;;;;;;44.75;17.48;;;-4.90;99.90;;;;;;5104999;28;20035;-55
2024/01/11 02:25:41;;;;;;;44.95;17.92;;;-4.90;99.90;;;;;;5112942;28;20077;-55
2024/01/11 02:28:08;;;;;;;51.58;19.33;;;-4.90;99.90;;;;;;5112860;28;20770;-54
2024/01/11 02:30:34;;;;;;;48.25;17.67;;;-4.90;99.90;;;;;;5112159;28;20039;-53
2024/01/11 02:33:00;;;;;;;41.55;17.30;;;-4.90;99.90;;;;;;5108247;28;20424;-53
2024/01/11 02:35:26;;;;;;;44.20;17.33;;;-5.00;99.90;;;;;;5112288;28;20039;-53
2024/01/11 02:37:52;;;;;;;43.47;16.30;;;-5.00;99.90;;;;;;5109212;28;20074;-56
2024/01/11 02:40:19;;;;;;;45.58;18.17;;;-5.00;99.90;;;;;;5112628;28;20042;-53
2024/01/11 02:42:44;;;;;;;42.72;16.67;;;-5.00;99.90;;;;;;5112122;28;20116;-56
2024/01/11 02:45:12;;;;;;;46.10;17.15;;;-5.00;99.90;;;;;;5112503;28;20078;-55
2024/01/11 02:47:38;;;;;;;42.58;18.08;;;-5.00;99.90;;;;;;5111593;28;20232;-56
2024/01/11 02:50:05;;;;;;;42.92;17.75;;;-5.00;99.90;;;;;;5053470;28;20037;-55
2024/01/11 02:52:30;;;;;;;46.95;18.02;;;-5.00;99.90;;;;;;5028693;28;20564;-53
2024/01/11 02:54:57;;;;;;;48.40;18.30;;;-5.00;99.90;;;;;;5028309;28;20073;-55
2024/01/11 02:57:22;;;;;;;39.95;16.20;;;-5.10;99.90;;;;;;5053324;28;20386;-54
2024/01/11 02:59:51;;;;;;;41.00;16.83;;;-5.10;99.90;;;;;;5039156;28;20052;-53
2024/01/11 03:02:16;;;;;;;44.22;18.05;;;-5.20;99.90;;;;;;5067624;28;20042;-52
2024/01/11 03:04:42;;;;;;;42.95;17.42;;;-5.10;99.90;;;;;;5087262;28;20038;-55
2024/01/11 03:07:07;;;;;;;43.40;17.17;;;-5.20;99.90;;;;;;5099299;28;20027;-55
2024/01/11 03:09:34;;;;;;;44.22;17.08;;;-5.20;99.90;;;;;;5028983;28;20038;-57
2024/01/11 03:12:00;;;;;;;48.78;19.35;;;-5.20;99.90;;;;;;5028200;28;20053;-54
2024/01/11 03:14:25;;;;;;;40.40;16.77;;;-5.20;99.90;;;;;;5027185;28;20033;-54
2024/01/11 03:16:51;;;;;;;44.40;17.38;;;-5.30;99.90;;;;;;5028716;28;20464;-56
2024/01/11 03:19:17;;;;;;;42.50;17.63;;;-5.30;99.90;;;;;;5028496;28;20419;-51
2024/01/11 03:21:44;;;;;;;45.47;17.65;;;-5.20;99.90;;;;;;5045546;28;20043;-52
2024/01/11 03:24:09;;;;;;;50.80;18.38;;;-5.20;99.90;;;;;;5111502;28;20047;-53
2024/01/11 03:26:35;;;;;;;45.85;18.42;;;-5.20;99.90;;;;;;5111546;28;20028;-55
2024/01/11 03:29:01;;;;;;;55.05;20.20;;;-5.30;99.90;;;;;;5077352;28;20389;-51
2024/01/11 03:31:26;;;;;;;46.90;17.58;;;-5.30;99.90;;;;;;5034187;28;20089;-55
2024/01/11 03:33:52;;;;;;;48.20;18.25;;;-5.30;99.90;;;;;;5111507;28;20043;-53
2024/01/11 03:36:18;;;;;;;42.70;17.88;;;-5.30;99.90;;;;;;5111258;28;20043;-54
2024/01/11 03:38:43;;;;;;;44.50;17.60;;;-5.30;99.90;;;;;;5111455;28;20032;-54
2024/01/11 03:41:12;;;;;;;48.58;18.48;;;-5.40;99.90;;;;;;5111628;28;20044;-54
2024/01/11 03:43:38;;;;;;;51.50;18.38;;;-5.30;99.90;;;;;;5085258;28;20062;-53
2024/01/11 03:46:04;;;;;;;45.83;16.90;;;-5.40;99.90;;;;;;5098199;28;20045;-54
2024/01/11 03:48:30;;;;;;;47.35;18.42;;;-5.40;99.90;;;;;;5099838;28;20043;-55
2024/01/11 03:50:56;;;;;;;42.55;17.90;;;-5.40;99.90;;;;;;5111067;28;20028;-53
2024/01/11 03:53:21;;;;;;;49.30;17.88;;;-5.30;99.90;;;;;;5111075;28;20052;-52
2024/01/11 03:55:47;;;;;;;49.28;18.52;;;-5.40;99.90;;;;;;5032334;28;20378;-53
2024/01/11 03:58:14;;;;;;;47.22;18.35;;;-5.40;99.90;;;;;;5081656;28;20032;-53
2024/01/11 04:00:39;;;;;;;46.55;19.08;;;-5.30;99.90;;;;;;5081228;28;20179;-54
2024/01/11 04:03:06;;;;;;;48.53;17.45;;;-5.30;99.90;;;;;;5058162;28;20075;-54
2024/01/11 04:05:32;;;;;;;42.92;16.80;;;-5.30;99.90;;;;;;4994015;28;20053;-55
2024/01/11 04:07:58;;;;;;;52.28;19.75;;;-5.40;99.90;;;;;;5089722;28;20038;-54
2024/01/11 04:10:24;;;;;;;45.97;18.48;;;-5.40;99.90;;;;;;5081556;28;20041;-55
2024/01/11 04:12:49;;;;;;;46.95;17.85;;;-5.30;99.90;;;;;;5090857;28;20036;-56
2024/01/11 04:15:16;;;;;;;51.15;20.70;;;-5.30;99.90;;;;;;5083350;28;20038;-51
2024/01/11 04:17:41;;;;;;;46.38;18.75;;;-5.40;99.90;;;;;;5081994;28;20121;-56
2024/01/11 04:20:08;;;;;;;44.55;18.13;;;-5.40;99.90;;;;;;5082969;28;20154;-56
2024/01/11 04:22:34;;;;;;;45.42;17.90;;;-5.40;99.90;;;;;;5080893;28;20088;-55
2024/01/11 04:25:00;;;;;;;45.85;18.40;;;-5.40;99.90;;;;;;5013808;28;20045;-52
2024/01/11 04:27:26;;;;;;;43.90;16.90;;;-5.30;99.90;;;;;;5011079;28;20061;-53
2024/01/11 04:29:51;;;;;;;43.10;16.92;;;-5.30;99.90;;;;;;5041670;28;20454;-55
2024/01/11 04:32:17;;;;;;;41.63;17.75;;;-5.40;99.90;;;;;;5099242;28;20521;-56
2024/01/11 04:34:43;;;;;;;47.40;19.05;;;-5.40;99.90;;;;;;5018912;28;20520;-56
2024/01/11 04:37:08;;;;;;;46.67;17.02;;;-5.40;99.90;;;;;;5081421;28;20039;-53
2024/01/11 04:39:34;;;;;;;51.15;18.90;;;-5.40;99.90;;;;;;5081503;28;20087;-52
2024/01/11 04:42:00;;;;;;;49.88;17.90;;;-5.40;99.90;;;;;;5093457;28;20051;-55
2024/01/11 04:44:26;;;;;;;50.45;18.80;;;-5.40;99.90;;;;;;5085242;28;20027;-55
2024/01/11 04:46:52;;;;;;;43.78;17.88;;;-5.40;99.90;;;;;;5088880;28;20085;-56
2024/01/11 04:49:18;;;;;;;50.45;18.65;;;-5.40;99.90;;;;;;5084640;28;20545;-54
2024/01/11 04:51:43;;;;;;;41.83;16.17;;;-5.60;99.90;;;;;;5093613;28;20471;-55
2024/01/11 04:54:09;;;;;;;48.53;19.52;;;-5.50;99.90;;;;;;5099147;28;20744;-53
2024/01/11 04:56:34;;;;;;;40.67;17.27;;;-5.50;99.90;;;;;;5083949;28;20032;-54
2024/01/11 04:59:00;;;;;;;49.75;18.42;;;-5.50;99.90;;;;;;5112455;28;20024;-54
2024/01/11 05:01:26;;;;;;;46.10;18.02;;;-5.60;99.90;;;;;;5106628;28;20050;-54
2024/01/11 05:03:51;;;;;;;49.67;18.65;;;-5.50;99.90;;;;;;5030693;28;20033;-55
2024/01/11 05:06:19;;;;;;;45.38;17.50;;;-5.60;99.90;;;;;;5030605;28;20528;-52
2024/01/11 05:08:54;;;;;;;47.90;18.55;;;-5.60;99.90;;;;;;5030525;28;20129;-54
2024/01/11 05:11:23;;;;;;;53.22;18.42;;;-5.50;99.90;;;;;;5030474;28;20037;-53
2024/01/11 05:13:50;;;;;;;47.38;19.10;;;-5.50;99.90;;;;;;5098634;28;20069;-50
2024/01/11 05:16:25;;;;;;;50.58;18.95;;;-5.60;99.90;;;;;;5031510;28;20047;-54
2024/01/11 05:18:52;;;;;;;56.20;19.80;;;-5.70;99.90;;;;;;5030657;28;20041;-54
2024/01/11 05:21:18;;;;;;;56.35;20.80;;;-5.70;99.90;;;;;;5097721;28;20043;-54
2024/01/11 05:23:45;;;;;;;59.17;22.05;;;-5.70;99.90;;;;;;5113967;28;20115;-54
2024/01/11 05:26:11;;;;;;;58.20;21.23;;;-5.60;99.90;;;;;;5113877;28;20107;-56
2024/01/11 05:28:38;;;;;;;50.67;19.38;;;-5.70;99.90;;;;;;5091362;28;20042;-54
2024/01/11 05:31:15;;;;;;;53.63;19.67;;;-5.70;99.90;;;;;;5110308;28;20044;-52
2024/01/11 05:33:41;;;;;;;54.15;20.33;;;-5.60;99.90;;;;;;5107518;28;20050;-53
2024/01/11 05:36:07;;;;;;;52.25;19.67;;;-5.70;99.90;;;;;;5111973;28;20039;-54
2024/01/11 05:38:34;;;;;;;54.13;20.77;;;-5.70;99.90;;;;;;5105775;28;20034;-54
2024/01/11 05:41:00;;;;;;;51.50;20.10;;;-5.70;99.90;;;;;;5113752;28;20032;-53
2024/01/11 05:43:25;;;;;;;54.13;19.45;;;-5.60;99.90;;;;;;5106546;28;20406;-52
2024/01/11 05:45:51;;;;;;;63.53;20.13;;;-5.70;99.90;;;;;;5105918;28;20043;-55
2024/01/11 05:48:17;;;;;;;57.15;20.60;;;-5.70;99.90;;;;;;5101242;28;20083;-55
2024/01/11 05:50:44;;;;;;;53.80;19.00;;;-5.60;99.90;;;;;;5113303;28;20040;-53
2024/01/11 05:53:11;;;;;;;57.80;21.10;;;-5.60;99.90;;;;;;5028936;28;20045;-54
2024/01/11 05:55:37;;;;;;;54.95;20.63;;;-5.60;99.90;;;;;;5085416;28;20114;-55
2024/01/11 05:58:03;;;;;;;55.35;21.45;;;-5.60;99.90;;;;;;5113137;28;20530;-53
2024/01/11 06:00:29;;;;;;;58.95;22.20;;;-5.50;99.90;;;;;;5107861;28;20048;-53
2024/01/11 06:02:54;;;;;;;59.88;20.90;;;-5.60;99.90;;;;;;5017531;28;20473;-55
2024/01/11 06:05:20;;;;;;;55.85;20.95;;;-5.50;99.90;;;;;;5032896;28;20049;-51
2024/01/11 06:07:47;;;;;;;53.70;20.83;;;-5.50;99.90;;;;;;5113013;28;20032;-54
2024/01/11 06:10:13;;;;;;;55.67;20.98;;;-5.50;99.90;;;;;;5104279;28;20062;-53
2024/01/11 06:12:40;;;;;;;54.33;20.63;;;-5.60;99.90;;;;;;5029320;28;20377;-55
2024/01/11 06:15:07;;;;;;;55.92;21.20;;;-5.50;99.90;;;;;;5029729;28;20377;-54
2024/01/11 06:17:33;;;;;;;54.65;19.63;;;-5.50;99.90;;;;;;5029497;28;20061;-53
2024/01/11 06:19:58;;;;;;;60.55;21.02;;;-5.40;99.90;;;;;;5029621;28;20076;-52
2024/01/11 06:22:24;;;;;;;56.72;20.05;;;-5.40;99.90;;;;;;5030948;28;20442;-54
2024/01/11 06:24:50;;;;;;;54.05;21.73;;;-5.50;99.90;;;;;;5112460;28;20031;-56
2024/01/11 06:27:15;;;;;;;57.65;21.52;;;-5.50;99.90;;;;;;5028101;28;20453;-55
2024/01/11 06:29:41;;;;;;;54.45;19.92;;;-5.50;99.90;;;;;;5056909;28;20490;-56
2024/01/11 06:32:07;;;;;;;53.20;20.63;;;-5.40;99.90;;;;;;5109657;28;20139;-55
2024/01/11 06:34:35;;;;;;;56.33;20.77;;;-5.50;99.90;;;;;;5112438;28;20118;-54
2024/01/11 06:37:02;;;;;;;55.30;20.08;;;-5.50;99.90;;;;;;5111924;28;20039;-54
2024/01/11 06:39:29;;;;;;;59.20;21.10;;;-5.20;99.90;;;;;;5112456;28;20056;-53
2024/01/11 06:41:55;;;;;;;57.88;21.02;;;-5.40;99.90;;;;;;5112598;28;20596;-54
2024/01/11 06:44:21;;;;;;;60.25;22.02;;;-5.40;99.90;;;;;;5109472;28;20126;-55
2024/01/11 06:46:46;;;;;;;55.08;21.65;;;-5.30;99.90;;;;;;5112269;28;20085;-56
2024/01/11 06:49:12;;;;;;;53.92;20.13;;;-5.30;99.90;;;;;;5031962;28;20048;-56
2024/01/11 06:51:39;;;;;;;57.47;21.98;;;-5.30;99.90;;;;;;5028744;28;20488;-56
2024/01/11 06:54:04;;;;;;;52.75;18.80;;;-5.10;99.90;;;;;;5071508;28;20105;-55
2024/01/11 06:56:30;;;;;;;59.90;20.83;;;-5.20;99.90;;;;;;5112092;28;20039;-54
2024/01/11 06:58:56;;;;;;;54.70;21.23;;;-5.00;99.90;;;;;;5111494;28;20119;-56
2024/01/11 07:01:22;;;;;;;59.92;20.75;;;-5.00;99.90;;;;;;5112182;28;20122;-56
2024/01/11 07:03:49;;;;;;;53.38;21.45;;;-4.60;99.90;;;;;;5112168;28;20042;-56
2024/01/11 07:06:15;;;;;;;57.47;21.80;;;-4.80;99.90;;;;;;5111665;28;20063;-55
2024/01/11 07:08:41;;;;;;;56.13;21.55;;;-4.80;99.90;;;;;;5108863;28;20434;-54
2024/01/11 07:11:07;;;;;;;57.15;21.92;;;-4.70;99.90;;;;;;5030267;28;20068;-54
2024/01/11 07:13:33;;;;;;;56.08;22.23;;;-4.70;99.90;;;;;;5104593;28;20042;-55
2024/01/11 07:15:59;;;;;;;57.25;21.67;;;-4.70;99.90;;;;;;5076282;28;20545;-55
2024/01/11 07:18:25;;;;;;;54.17;22.25;;;-4.50;99.90;;;;;;5031125;28;20043;-52
2024/01/11 07:20:52;;;;;;;54.38;21.83;;;-4.40;99.90;;;;;;5111678;28;20035;-56
2024/01/11 07:23:18;;;;;;;58.70;20.80;;;-4.50;99.90;;;;;;5111353;28;20127;-57
2024/01/11 07:25:44;;;;;;;50.22;21.08;;;-4.40;99.90;;;;;;5052978;28;20121;-54
2024/01/11 07:28:09;;;;;;;58.58;22.55;;;-4.50;99.90;;;;;;5028202;28;20042;-56
2024/01/11 07:30:35;;;;;;;59.40;22.63;;;-4.30;99.90;;;;;;5027808;28;20117;-54
2024/01/11 07:33:01;;;;;;;59.03;23.00;;;-4.30;99.90;;;;;;5028338;28;20046;-54
2024/01/11 07:35:27;;;;;;;57.30;21.40;;;-4.30;99.90;;;;;;5089036;28;20032;-57
2024/01/11 07:37:53;;;;;;;58.97;22.92;;;-4.30;99.90;;;;;;5041615;28;20040;-56
2024/01/11 07:40:18;;;;;;;61.17;22.92;;;-4.10;99.90;;;;;;5028189;28;20075;-54
2024/01/11 07:42:45;;;;;;;59.85;21.58;;;-4.10;99.90;;;;;;5026849;28;20033;-55
2024/01/11 07:45:11;;;;;;;62.00;23.60;;;-4.30;99.90;;;;;;5028302;28;20115;-56
2024/01/11 07:47:37;;;;;;;61.95;22.13;;;-4.00;99.90;;;;;;5057813;28;20474;-55
2024/01/11 07:50:09;;;;;;;55.80;22.95;;;-4.20;99.90;;;;;;5111312;28;20043;-54
2024/01/11 07:52:36;;;;;;;55.45;23.27;;;-4.10;99.90;;;;;;5105657;28;20075;-56
2024/01/11 07:55:07;;;;;;;56.33;23.00;;;-4.00;99.90;;;;;;5109942;28;20054;-56
2024/01/11 07:57:34;;;;;;;56.50;21.92;;;-3.90;99.90;;;;;;5111272;28;20063;-55
2024/01/11 08:00:00;;;;;;;62.85;22.70;;;-3.90;99.90;;;;;;5047120;28;20488;-56
2024/01/11 08:02:26;;;;;;;57.83;22.92;;;-4.00;99.90;;;;;;5028267;28;20049;-56
2024/01/11 08:04:52;;;;;;;56.90;23.48;;;-3.90;99.90;;;;;;5027651;28;20042;-56
2024/01/11 08:07:18;;;;;;;57.72;22.77;;;-4.00;99.90;;;;;;5073995;28;20069;-55
2024/01/11 08:09:46;;;;;;;58.00;22.33;;;-3.90;99.90;;;;;;5110641;28;20062;-53
2024/01/11 08:12:13;;;;;;;57.97;24.33;;;-3.90;99.90;;;;;;5035759;28;20053;-54
2024/01/11 08:14:39;;;;;;;61.83;23.83;;;-3.80;99.90;;;;;;5097128;28;20032;-53
2024/01/11 08:17:05;;;;;;;54.97;23.38;;;-3.80;99.90;;;;;;5095933;28;20038;-54
2024/01/11 08:19:32;;;;;;;69.18;25.25;;;-3.60;99.90;;;;;;5027283;28;20457;-52
2024/01/11 08:21:58;;;;;;;59.83;23.38;;;-3.60;99.90;;;;;;5027905;28;20033;-54
2024/01/11 08:24:24;;;;;;;65.07;25.40;;;-3.50;99.90;;;;;;5026412;28;20049;-55
2024/01/11 08:26:50;;;;;;;62.30;23.75;;;-3.60;99.90;;;;;;5027507;28;20045;-52
2024/01/11 08:29:18;;;;;;;58.30;23.95;;;-3.40;99.90;;;;;;5036829;28;20074;-53
2024/01/11 08:31:44;;;;;;;64.88;23.42;;;-3.50;99.90;;;;;;5080213;28;20047;-55
2024/01/11 08:34:10;;;;;;;64.55;25.15;;;-3.40;99.90;;;;;;5071178;28;20522;-54
2024/01/11 08:36:38;;;;;;;59.70;24.98;;;-3.60;99.90;;;;;;5091792;28;20039;-56
2024/01/11 08:39:08;;;;;;;65.18;25.60;;;-3.40;99.90;;;;;;5092717;28;20067;-53
2024/01/11 08:41:37;;;;;;;64.18;23.70;;;-3.30;99.90;;;;;;5019027;28;20404;-53
2024/01/11 08:44:05;;;;;;;63.35;25.08;;;-3.30;99.90;;;;;;5110742;28;20109;-55
2024/01/11 08:46:33;;;;;;;65.88;24.75;;;-3.50;99.90;;;;;;5110597;28;20044;-54
2024/01/11 08:48:59;;;;;;;58.33;23.58;;;-3.30;99.90;;;;;;5096967;28;20032;-56
2024/01/11 08:51:26;;;;;;;57.45;24.67;;;-3.30;99.90;;;;;;5040567;28;20036;-55
2024/01/11 08:53:55;;;;;;;57.75;24.80;;;-3.10;99.90;;;;;;5060374;28;20100;-55
2024/01/11 08:56:21;;;;;;;62.65;26.00;;;-3.30;99.90;;;;;;5059628;28;20047;-53
2024/01/11 08:58:48;;;;;;;64.45;25.00;;;-3.20;99.90;;;;;;5049078;28;20360;-54
2024/01/11 09:01:14;;;;;;;69.07;24.90;;;-3.00;99.90;;;;;;5086601;28;20066;-54
2024/01/11 09:03:40;;;;;;;66.45;26.50;;;-3.20;99.90;;;;;;5113572;28;20361;-55
2024/01/11 09:06:06;;;;;;;65.72;26.27;;;-3.20;99.90;;;;;;5031691;28;20047;-56
2024/01/11 09:08:32;;;;;;;66.68;24.27;;;-3.10;99.90;;;;;;5055107;28;20047;-56
2024/01/11 09:10:58;;;;;;;65.20;26.73;;;-2.80;99.90;;;;;;5111090;28;20477;-55
2024/01/11 09:13:25;;;;;;;62.28;25.35;;;-3.10;99.90;;;;;;5088567;28;20422;-55
2024/01/11 09:15:52;;;;;;;69.88;27.13;;;-2.80;99.90;;;;;;5107189;28;20023;-55
2024/01/11 09:18:18;;;;;;;68.38;28.33;;;-2.90;99.90;;;;;;5051166;28;20041;-56
2024/01/11 09:20:43;;;;;;;61.05;26.50;;;-3.00;99.90;;;;;;5082973;28;20128;-54
2024/01/11 09:23:09;;;;;;;72.25;26.27;;;-2.60;99.90;;;;;;5103670;28;20144;-55
2024/01/11 09:25:35;;;;;;;63.17;26.67;;;-2.50;99.90;;;;;;5113450;28;20040;-56
2024/01/11 09:28:01;;;;;;;70.35;26.85;;;-2.50;99.90;;;;;;5094179;28;20097;-54
2024/01/11 09:30:26;;;;;;;73.38;29.27;;;-2.50;99.90;;;;;;5045942;28;20089;-53
2024/01/11 09:32:52;;;;;;;67.63;26.55;;;-2.50;99.90;;;;;;5101446;28;20040;-54
2024/01/11 09:35:18;;;;;;;72.93;27.23;;;-2.50;99.90;;;;;;5030109;28;20038;-54
2024/01/11 09:37:46;;;;;;;72.93;27.85;;;-2.30;99.90;;;;;;5029611;28;20085;-53
2024/01/11 09:40:12;;;;;;;70.80;27.75;;;-2.60;99.90;;;;;;5030285;28;20041;-53
2024/01/11 09:42:38;;;;;;;66.80;26.13;;;-2.30;99.90;;;;;;5029968;28;20514;-55
2024/01/11 09:45:10;;;;;;;76.55;26.38;;;-2.60;99.90;;;;;;5030259;28;20037;-54
2024/01/11 09:47:36;;;;;;;74.45;26.65;;;-2.20;99.90;;;;;;5029501;28;20121;-55
2024/01/11 09:50:06;;;;;;;78.00;27.70;;;-2.60;99.90;;;;;;5029898;28;20178;-52
2024/01/11 09:52:32;;;;;;;76.07;28.85;;;-2.10;99.90;;;;;;5029705;28;20435;-54
2024/01/11 09:55:01;;;;;;;76.13;28.50;;;-2.30;99.90;;;;;;5028112;28;20082;-56
2024/01/11 09:57:31;;;;;;;71.63;26.05;;;-2.00;99.90;;;;;;5029527;28;20041;-55
2024/01/11 09:59:57;;;;;;;73.85;25.23;;;-2.30;99.90;;;;;;5028532;28;20060;-53
2024/01/11 10:02:26;;;;;;;70.78;24.65;;;-2.30;99.90;;;;;;5030268;28;20053;-55
2024/01/11 10:04:52;;;;;;;69.70;27.13;;;-1.90;99.90;;;;;;5050653;28;20046;-54
2024/01/11 10:07:21;;;;;;;76.75;27.58;;;-2.20;99.90;;;;;;5113147;28;20527;-56
2024/01/11 10:09:47;;;;;;;73.10;27.25;;;-2.10;99.90;;;;;;5099743;28;20115;-54
2024/01/11 10:12:13;;;;;;;79.47;30.05;;;-1.70;99.90;;;;;;5112604;28;20165;-55
2024/01/11 10:14:39;;;;;;;74.03;27.17;;;-1.70;99.90;;;;;;5112562;28;20043;-56
2024/01/11 10:17:06;;;;;;;75.13;28.02;;;-2.10;99.90;;;;;;5113121;28;20470;-56
2024/01/11 10:19:31;;;;;;;83.95;29.20;;;-1.80;99.90;;;;;;5112992;28;20116;-55
2024/01/11 10:21:58;;;;;;;78.45;26.90;;;-1.90;99.90;;;;;;5113003;28;20564;-55
2024/01/11 10:24:26;;;;;;;73.28;28.42;;;-1.90;99.90;;;;;;5104397;28;20112;-54
2024/01/11 10:27:01;;;;;;;71.47;27.00;;;-1.40;99.90;;;;;;5029492;28;20435;-55
2024/01/11 10:29:33;;;;;;;68.32;26.23;;;-1.90;99.90;;;;;;5027328;28;20037;-55
2024/01/11 10:31:59;;;;;;;70.03;28.40;;;-1.90;99.90;;;;;;5029318;28;20053;-56
2024/01/11 10:34:25;;;;;;;74.45;29.48;;;-1.80;99.90;;;;;;5029941;28;20463;-56
2024/01/11 10:36:51;;;;;;;76.65;29.00;;;-1.40;99.90;;;;;;5112464;28;20036;-54
2024/01/11 10:39:17;;;;;;;86.03;30.38;;;-1.70;99.90;;;;;;5068099;28;20049;-56
2024/01/11 10:41:51;;;;;;;84.53;28.98;;;-1.10;99.90;;;;;;5051495;28;20077;-52
2024/01/11 10:44:21;;;;;;;76.07;27.42;;;-1.50;99.90;;;;;;5070659;28;20078;-55
2024/01/11 10:46:49;;;;;;;73.05;26.63;;;-1.30;99.90;;;;;;5095963;28;20392;-54
2024/01/11 10:49:18;;;;;;;66.43;27.20;;;-1.10;99.90;;;;;;5070904;28;20071;-54
2024/01/11 10:51:58;;;;;;;77.82;28.10;;;-1.10;99.90;;;;;;5057176;28;20039;-55
2024/01/11 10:54:24;;;;;;;78.28;28.20;;;-1.10;99.90;;;;;;5051584;28;20062;-55
2024/01/11 10:56:51;;;;;;;86.90;31.05;;;-1.20;99.90;;;;;;5039519;28;20034;-54
2024/01/11 10:59:20;;;;;;;87.40;31.75;;;-1.00;99.90;;;;;;5068299;28;20035;-55
2024/01/11 11:01:47;;;;;;;82.10;29.75;;;-1.00;99.90;;;;;;5062193;28;20042;-55
2024/01/11 11:04:15;;;;;;;88.70;31.88;;;-0.90;99.90;;;;;;5063635;28;20047;-54
2024/01/11 11:06:42;;;;;;;86.93;33.97;;;-1.10;99.90;;;;;;5048255;28;20555;-55
2024/01/11 11:09:10;;;;;;;87.88;31.77;;;-0.60;99.90;;;;;;5016263;28;20034;-56
2024/01/11 11:11:38;;;;;;;83.25;33.17;;;-0.50;99.90;;;;;;5057364;28;20046;-52
2024/01/11 11:14:05;;;;;;;82.10;31.13;;;-1.00;99.90;;;;;;5036446;28;20048;-56
2024/01/11 11:16:30;;;;;;;83.70;32.22;;;-0.80;99.90;;;;;;5022476;28;20034;-56
2024/01/11 11:18:56;;;;;;;82.00;31.33;;;-0.60;99.90;;;;;;5070622;28;20164;-56
2024/01/11 11:21:24;;;;;;;71.88;30.00;;;-0.30;99.90;;;;;;5047377;28;20070;-55
2024/01/11 11:23:50;;;;;;;73.63;30.42;;;-0.30;99.90;;;;;;5041775;28;20048;-56
2024/01/11 11:26:17;;;;;;;70.72;29.05;;;-0.70;99.90;;;;;;5060564;28;20522;-54
2024/01/11 11:28:43;;;;;;;82.97;33.08;;;-0.20;99.90;;;;;;5070335;28;20118;-57
2024/01/11 11:31:14;;;;;;;84.40;32.90;;;-0.20;99.90;;;;;;5036960;28;20044;-56
2024/01/11 11:33:40;;;;;;;82.45;32.83;;;-0.20;99.90;;;;;;5056309;28;20064;-57
2024/01/11 11:36:13;;;;;;;84.93;31.80;;;-0.10;99.90;;;;;;5065994;28;20035;-56
2024/01/11 11:38:39;;;;;;;79.05;32.72;;;-0.40;99.90;;;;;;5054417;28;20046;-57
2024/01/11 11:41:05;;;;;;;90.45;34.22;;;-0.20;99.90;;;;;;5008949;28;20507;-56
2024/01/11 11:43:31;;;;;;;83.45;31.88;;;0.00;99.90;;;;;;5065903;28;20034;-56
2024/01/11 11:45:57;;;;;;;78.43;32.67;;;-0.50;99.90;;;;;;5061993;28;20662;-57
2024/01/11 11:48:29;;;;;;;83.43;33.53;;;-0.70;99.90;;;;;;5052084;28;20032;-55
2024/01/11 11:51:12;;;;;;;75.95;31.63;;;-0.30;99.90;;;;;;5083202;28;20534;-57
2024/01/11 11:53:40;;;;;;;82.38;31.27;;;-0.30;99.90;;;;;;5065672;28;20267;-56
2024/01/11 11:56:07;;;;;;;80.88;32.40;;;-0.50;99.90;;;;;;5068600;28;20155;-54
2024/01/11 11:58:34;;;;;;;78.30;31.67;;;-0.50;99.90;;;;;;5061384;28;20058;-57
2024/01/11 12:01:01;;;;;;;81.80;31.58;;;0.10;99.90;;;;;;5059338;28;20043;-56
2024/01/11 12:03:32;;;;;;;82.50;33.17;;;-0.50;99.90;;;;;;5090933;28;20046;-55
2024/01/11 12:05:59;;;;;;;78.85;30.75;;;-0.50;99.90;;;;;;5063851;28;20076;-57
2024/01/11 12:08:25;;;;;;;82.75;31.60;;;-0.40;99.90;;;;;;5007451;28;20485;-55
2024/01/11 12:10:54;;;;;;;77.70;30.15;;;-0.20;99.90;;;;;;5009755;28;20143;-55
2024/01/11 12:13:20;;;;;;;76.43;28.88;;;-0.20;99.90;;;;;;5057198;28;20062;-57
2024/01/11 12:15:46;;;;;;;71.32;28.75;;;0.30;99.90;;;;;;5049109;28;20044;-56
2024/01/11 12:18:12;;;;;;;70.13;29.00;;;-0.10;99.90;;;;;;5044199;28;20084;-56
2024/01/11 12:20:38;;;;;;;66.22;28.90;;;-0.20;99.90;;;;;;5023917;28;20431;-58
2024/01/11 12:23:04;;;;;;;75.13;30.52;;;0.10;99.90;;;;;;5042971;28;20032;-57
2024/01/11 12:25:31;;;;;;;70.15;28.30;;;0.20;99.90;;;;;;5019107;28;20100;-55